createdAt,value
2023-05-08T00:00:04.302Z,89
2023-05-08T00:15:25.272Z,89.5
2023-05-08T00:30:46.229Z,90.4
2023-05-08T00:46:07.198Z,90.4
2023-05-08T01:01:28.182Z,91.3
2023-05-08T01:16:49.135Z,92.6
2023-05-08T01:32:10.102Z,92.6
2023-05-08T01:47:31.087Z,94.4
2023-05-08T02:02:52.053Z,94.3
2023-05-08T02:18:13.017Z,95
2023-05-08T02:33:33.984Z,95.5
2023-05-08T02:48:54.955Z,95.6
2023-05-08T03:04:15.877Z,96.6
2023-05-08T03:19:35.829Z,97.1
2023-05-08T03:34:56.738Z,97.1
2023-05-08T03:50:17.666Z,97.3
2023-05-08T04:05:38.604Z,95
2023-05-08T04:20:59.523Z,88.4
2023-05-08T04:36:20.463Z,83.9
2023-05-08T04:51:41.394Z,80.4
2023-05-08T05:07:02.319Z,77.5
2023-05-08T05:22:23.261Z,73.4
2023-05-08T05:37:44.176Z,73.3
2023-05-08T05:39:05.262Z,71.4
2023-05-08T05:40:26.328Z,71.9
2023-05-08T05:41:47.414Z,70.8
2023-05-08T05:43:07.506Z,69
2023-05-08T05:44:28.575Z,70.2
2023-05-08T05:45:49.651Z,71.9
2023-05-08T05:47:10.729Z,71.4
2023-05-08T05:48:31.813Z,71.8
2023-05-08T05:49:51.901Z,70.9
2023-05-08T05:51:12.976Z,70.8
2023-05-08T05:52:34.052Z,69.1
2023-05-08T05:53:55.152Z,70.4
2023-05-08T05:55:16.223Z,69.5
2023-05-08T05:56:37.296Z,69.3
2023-05-08T05:57:58.374Z,69.3
2023-05-08T05:59:19.444Z,69.5
2023-05-08T06:00:40.519Z,69.5
2023-05-08T06:02:01.605Z,70.7
2023-05-08T06:03:22.698Z,70.5
2023-05-08T06:04:43.759Z,69.7
2023-05-08T06:06:04.847Z,67.9
2023-05-08T06:07:24.928Z,69.9
2023-05-08T06:08:46.018Z,69.7
2023-05-08T06:10:07.084Z,71
2023-05-08T06:11:28.168Z,70.9
2023-05-08T06:12:49.236Z,69.1
2023-05-08T06:14:10.321Z,69.1
2023-05-08T06:15:31.390Z,69.8
2023-05-08T06:16:52.000Z,71.9
2023-05-08T06:18:13.548Z,70.6
2023-05-08T06:19:34.629Z,71.9
2023-05-08T06:20:55.709Z,69.5
2023-05-08T06:22:16.787Z,69.7
2023-05-08T06:23:37.855Z,70.8
2023-05-08T06:24:57.953Z,70.7
2023-05-08T06:26:19.044Z,70.6
2023-05-08T06:27:40.116Z,70.1
2023-05-08T06:29:01.195Z,70.1
2023-05-08T06:30:22.267Z,68.8
2023-05-08T06:31:43.338Z,66.8
2023-05-08T06:33:04.421Z,66.7
2023-05-08T06:34:25.506Z,67
2023-05-08T06:35:46.582Z,67
2023-05-08T06:37:07.643Z,67.4
2023-05-08T06:38:28.723Z,67.4
2023-05-08T06:39:49.803Z,68.5
2023-05-08T06:41:10.894Z,70.1
2023-05-08T06:42:30.985Z,68.7
2023-05-08T06:43:52.050Z,68.9
2023-05-08T06:45:13.137Z,69.2
2023-05-08T06:46:34.221Z,67.3
2023-05-08T06:47:55.300Z,66.8
2023-05-08T06:49:16.382Z,67.9
2023-05-08T06:50:37.461Z,70.5
2023-05-08T06:53:19.600Z,67.8
2023-05-08T06:54:40.671Z,70.1
2023-05-08T06:56:01.751Z,68.4
2023-05-08T06:57:22.848Z,67.2
2023-05-08T06:58:43.919Z,68.2
2023-05-08T07:00:04.006Z,69
2023-05-08T07:01:25.085Z,70.8
2023-05-08T07:02:46.166Z,69.9
2023-05-08T07:04:07.253Z,70.2
2023-05-08T07:05:28.325Z,71.1
2023-05-08T07:06:49.393Z,72.7
2023-05-08T07:08:10.465Z,72.5
2023-05-08T07:09:31.548Z,71.7
2023-05-08T07:10:52.636Z,71.4
2023-05-08T07:12:13.704Z,68.8
2023-05-08T07:13:34.781Z,70.1
2023-05-08T07:14:55.856Z,70.6
2023-05-08T07:16:16.939Z,72.1
2023-05-08T07:17:37.039Z,71.2
2023-05-08T07:18:58.113Z,71.6
2023-05-08T07:21:40.253Z,70.5
2023-05-08T07:23:01.334Z,68.7
2023-05-08T07:24:22.412Z,68.4
2023-05-08T07:25:43.484Z,71.8
2023-05-08T07:27:04.558Z,72.8
2023-05-08T07:28:25.652Z,70.1
2023-05-08T07:29:46.724Z,68.8
2023-05-08T07:31:07.801Z,67.3
2023-05-08T07:33:49.941Z,69.4
2023-05-08T07:35:10.045Z,68.4
2023-05-08T07:36:31.108Z,69.5
2023-05-08T07:37:52.195Z,70.1
2023-05-08T07:39:13.262Z,72.1
2023-05-08T07:40:34.344Z,72.4
2023-05-08T07:41:55.421Z,71.6
2023-05-08T07:43:16.491Z,70.8
2023-05-08T07:44:37.581Z,70.4
2023-05-08T07:45:58.653Z,69.3
2023-05-08T07:47:19.726Z,70.2
2023-05-08T07:48:40.809Z,69.8
2023-05-08T07:50:01.895Z,69.4
2023-05-08T07:51:22.956Z,69.9
2023-05-08T07:52:43.048Z,72.8
2023-05-08T07:54:04.132Z,71.4
2023-05-08T07:55:25.214Z,72
2023-05-08T07:56:46.282Z,72.8
2023-05-08T07:58:07.351Z,69.2
2023-05-08T07:59:28.443Z,70.7
2023-05-08T08:00:49.508Z,70.8
2023-05-08T08:02:10.580Z,69.2
2023-05-08T08:03:31.668Z,69.8
2023-05-08T08:04:52.748Z,69.6
2023-05-08T08:06:13.818Z,69.5
2023-05-08T08:07:34.899Z,68
2023-05-08T08:08:55.974Z,68.2
2023-05-08T08:10:16.071Z,70.1
2023-05-08T08:11:37.151Z,69.4
2023-05-08T08:12:58.231Z,66.3
2023-05-08T08:14:19.298Z,69.1
2023-05-08T08:15:40.375Z,66.4
2023-05-08T08:17:01.459Z,68
2023-05-08T08:18:22.537Z,67.9
2023-05-08T08:19:43.607Z,66.2
2023-05-08T08:21:04.682Z,68.8
2023-05-08T08:22:25.000Z,66.8
2023-05-08T08:23:46.847Z,68.3
2023-05-08T08:25:07.924Z,67.8
2023-05-08T08:26:29.003Z,70.2
2023-05-08T08:27:49.084Z,67.3
2023-05-08T08:30:31.247Z,68
2023-05-08T08:31:52.310Z,67.8
2023-05-08T08:33:13.405Z,67
2023-05-08T08:34:34.470Z,67.9
2023-05-08T08:35:55.552Z,66.4
2023-05-08T08:37:16.638Z,68.1
2023-05-08T08:38:37.716Z,65.3
2023-05-08T08:39:58.772Z,65
2023-05-08T08:41:19.861Z,68.2
2023-05-08T08:42:40.937Z,66.8
2023-05-08T08:44:02.010Z,69
2023-05-08T08:45:22.106Z,64.3
2023-05-08T08:46:43.184Z,66.9
2023-05-08T08:48:04.282Z,63.6
2023-05-08T08:49:25.345Z,66.9
2023-05-08T08:50:46.431Z,68.8
2023-05-08T08:52:07.494Z,67
2023-05-08T08:53:28.579Z,66.4
2023-05-08T08:54:49.651Z,66.1
2023-05-08T08:56:10.729Z,63.5
2023-05-08T08:57:31.811Z,64.9
2023-05-08T08:58:52.881Z,64.3
2023-05-08T09:00:13.973Z,66
2023-05-08T09:01:35.050Z,65.6
2023-05-08T09:02:55.144Z,66.9
2023-05-08T09:04:16.216Z,63.9
2023-05-08T09:05:37.284Z,65.7
2023-05-08T09:06:58.376Z,66.8
2023-05-08T09:08:19.436Z,67.7
2023-05-08T09:09:40.517Z,62.5
2023-05-08T09:11:01.601Z,66.2
2023-05-08T09:12:22.669Z,65.4
2023-05-08T09:13:43.742Z,61.6
2023-05-08T09:15:04.823Z,64
2023-05-08T09:16:25.893Z,64.7
2023-05-08T09:17:46.982Z,66.8
2023-05-08T09:19:08.061Z,67.2
2023-05-08T09:20:28.145Z,62
2023-05-08T09:23:10.298Z,60.9
2023-05-08T09:24:31.377Z,63.3
2023-05-08T09:25:52.465Z,61.6
2023-05-08T09:27:13.524Z,63.6
2023-05-08T09:28:34.607Z,62.4
2023-05-08T09:29:55.659Z,63.4
2023-05-08T09:31:16.000Z,64.1
2023-05-08T09:32:37.797Z,63.4
2023-05-08T09:33:58.867Z,64.8
2023-05-08T09:35:19.935Z,63.8
2023-05-08T09:36:41.008Z,62.1
2023-05-08T09:38:01.099Z,61.4
2023-05-08T09:39:22.154Z,59.3
2023-05-08T09:40:43.234Z,60.9
2023-05-08T09:42:04.306Z,60.8
2023-05-08T09:43:25.391Z,58.4
2023-05-08T09:44:46.452Z,58.8
2023-05-08T09:46:07.523Z,59.1
2023-05-08T09:47:28.585Z,63.1
2023-05-08T09:48:49.649Z,60.5
2023-05-08T09:50:10.732Z,60.2
2023-05-08T09:51:31.797Z,57.7
2023-05-08T09:52:52.871Z,58.3
2023-05-08T09:54:13.938Z,57
2023-05-08T09:55:34.031Z,59.2
2023-05-08T09:56:55.125Z,60.4
2023-05-08T09:58:16.210Z,56.8
2023-05-08T09:59:37.281Z,57.2
2023-05-08T10:00:58.339Z,58.6
2023-05-08T10:02:19.430Z,56.9
2023-05-08T10:03:40.490Z,58.8
2023-05-08T10:05:01.564Z,55.7
2023-05-08T10:06:22.648Z,59.3
2023-05-08T10:07:43.728Z,58.2
2023-05-08T10:09:04.804Z,58.8
2023-05-08T10:10:25.884Z,56.1
2023-05-08T10:11:46.960Z,59.4
2023-05-08T10:13:07.047Z,59.6
2023-05-08T10:14:28.123Z,55.7
2023-05-08T10:15:49.190Z,56.2
2023-05-08T10:17:10.283Z,55.9
2023-05-08T10:18:31.350Z,56.8
2023-05-08T10:19:52.424Z,57.4
2023-05-08T10:21:12.530Z,57.1
2023-05-08T10:22:33.611Z,54.7
2023-05-08T10:23:54.673Z,58.4
2023-05-08T10:25:15.753Z,54.6
2023-05-08T10:26:36.841Z,57.2
2023-05-08T10:27:57.902Z,54
2023-05-08T10:29:18.963Z,53.9
2023-05-08T10:30:40.057Z,53.3
2023-05-08T10:32:01.134Z,54.2
2023-05-08T10:33:22.203Z,54.8
2023-05-08T10:34:43.279Z,53.9
2023-05-08T10:36:04.361Z,54.5
2023-05-08T10:37:25.411Z,53.4
2023-05-08T10:40:06.586Z,51.8
2023-05-08T10:41:27.664Z,52.8
2023-05-08T10:42:48.739Z,54.5
2023-05-08T10:44:09.825Z,50.9
2023-05-08T10:45:30.894Z,53.3
2023-05-08T10:46:51.976Z,53
2023-05-08T10:48:13.051Z,55
2023-05-08T10:49:34.133Z,52.6
2023-05-08T10:50:55.208Z,55.2
2023-05-08T10:52:16.291Z,54.3
2023-05-08T10:53:37.374Z,50.5
2023-05-08T10:54:58.455Z,53
2023-05-08T10:56:18.549Z,50.9
2023-05-08T10:57:39.629Z,52.7
2023-05-08T10:59:00.694Z,51.3
2023-05-08T11:00:21.771Z,51
2023-05-08T11:01:42.853Z,50
2023-05-08T11:03:03.930Z,49.6
2023-05-08T11:04:25.010Z,51.6
2023-05-08T11:05:46.091Z,50.3
2023-05-08T11:07:07.152Z,51.2
2023-05-08T11:08:28.243Z,51.8
2023-05-08T11:09:49.309Z,49.4
2023-05-08T11:11:10.386Z,49.1
2023-05-08T11:12:31.461Z,53.2
2023-05-08T11:13:51.553Z,48.1
2023-05-08T11:15:12.625Z,50.6
2023-05-08T11:16:33.729Z,51.5
2023-05-08T11:17:54.791Z,50.5
2023-05-08T11:19:15.879Z,48.5
2023-05-08T11:20:36.947Z,51.9
2023-05-08T11:21:58.032Z,48.9
2023-05-08T11:23:19.096Z,51.2
2023-05-08T11:24:40.191Z,51.4
2023-05-08T11:26:01.251Z,50.1
2023-05-08T11:27:22.338Z,49.6
2023-05-08T11:28:43.420Z,47.9
2023-05-08T11:30:04.474Z,49.8
2023-05-08T11:31:24.570Z,48.9
2023-05-08T11:32:45.649Z,50.6
2023-05-08T11:34:06.694Z,49.5
2023-05-08T11:35:27.774Z,48.9
2023-05-08T11:36:48.854Z,50.2
2023-05-08T11:38:09.935Z,49.4
2023-05-08T11:39:31.001Z,48.5
2023-05-08T11:42:13.144Z,48.3
2023-05-08T11:43:34.233Z,48.9
2023-05-08T11:44:55.304Z,53.3
2023-05-08T11:46:16.378Z,47.2
2023-05-08T11:47:37.454Z,51.6
2023-05-08T11:48:57.545Z,47.4
2023-05-08T11:50:18.625Z,48.4
2023-05-08T11:51:39.713Z,49.8
2023-05-08T11:53:00.794Z,48.8
2023-05-08T11:54:21.859Z,48.2
2023-05-08T11:55:42.934Z,48.4
2023-05-08T11:57:04.040Z,49.6
2023-05-08T11:58:25.108Z,50.8
2023-05-08T11:59:46.175Z,48.7
2023-05-08T12:01:07.251Z,48.2
2023-05-08T12:02:28.328Z,49.8
2023-05-08T12:03:49.412Z,47.7
2023-05-08T12:05:10.477Z,47.3
2023-05-08T12:06:30.587Z,48.7
2023-05-08T12:07:51.656Z,49.3
2023-05-08T12:09:12.725Z,44.4
2023-05-08T12:10:33.813Z,48
2023-05-08T12:11:54.886Z,44.1
2023-05-08T12:13:15.968Z,45.6
2023-05-08T12:14:37.032Z,43.8
2023-05-08T12:15:58.125Z,45.7
2023-05-08T12:17:19.201Z,43.2
2023-05-08T12:18:40.284Z,43.9
2023-05-08T12:20:01.361Z,46.8
2023-05-08T12:21:22.434Z,46.4
2023-05-08T12:22:43.513Z,45.8
2023-05-08T12:24:04.697Z,46
2023-05-08T12:25:25.786Z,45.2
2023-05-08T12:26:46.850Z,46.5
2023-05-08T12:28:07.936Z,44.8
2023-05-08T12:29:29.010Z,44.5
2023-05-08T12:30:50.085Z,43
2023-05-08T12:32:11.167Z,41.2
2023-05-08T12:33:32.257Z,45.7
2023-05-08T12:34:53.331Z,44.3
2023-05-08T12:36:14.416Z,45.7
2023-05-08T12:37:35.489Z,44.3
2023-05-08T12:38:56.555Z,45.8
2023-05-08T12:40:17.634Z,43.9
2023-05-08T12:41:37.744Z,44.8
2023-05-08T12:42:58.820Z,44.8
2023-05-08T12:44:19.887Z,44.8
2023-05-08T12:45:40.955Z,44.7
2023-05-08T12:47:02.036Z,42.8
2023-05-08T12:48:23.106Z,42.4
2023-05-08T12:49:44.183Z,41
2023-05-08T12:51:05.268Z,44.1
2023-05-08T12:52:26.347Z,43.3
2023-05-08T12:53:47.433Z,43.9
2023-05-08T12:55:08.490Z,44.3
2023-05-08T12:56:29.582Z,41.5
2023-05-08T12:57:50.664Z,45.4
2023-05-08T12:59:10.745Z,43.3
2023-05-08T13:00:31.827Z,41.8
2023-05-08T13:01:52.907Z,43.7
2023-05-08T13:03:13.987Z,40.6
2023-05-08T13:04:35.057Z,42.3
2023-05-08T13:05:56.134Z,45.4
2023-05-08T13:07:17.205Z,40.9
2023-05-08T13:08:38.303Z,39.7
2023-05-08T13:09:59.374Z,42.1
2023-05-08T13:11:20.440Z,45
2023-05-08T13:12:41.519Z,43.5
2023-05-08T13:14:02.605Z,42.8
2023-05-08T13:15:23.674Z,44.2
2023-05-08T13:16:43.787Z,40.5
2023-05-08T13:18:04.859Z,42.4
2023-05-08T13:19:25.947Z,42.4
2023-05-08T13:20:47.017Z,40.1
2023-05-08T13:22:08.099Z,41.9
2023-05-08T13:23:29.162Z,42.8
2023-05-08T13:24:50.251Z,39.9
2023-05-08T13:26:11.323Z,39.3
2023-05-08T13:27:32.403Z,40.7
2023-05-08T13:28:53.467Z,41.5
2023-05-08T13:30:14.543Z,40.2
2023-05-08T13:31:35.628Z,43.6
2023-05-08T13:32:56.713Z,43.1
2023-05-08T13:34:16.807Z,40.1
2023-05-08T13:35:37.892Z,43.2
2023-05-08T13:36:58.963Z,41.1
2023-05-08T13:38:20.040Z,42.7
2023-05-08T13:39:41.129Z,43.2
2023-05-08T13:41:02.197Z,39.8
2023-05-08T13:42:23.291Z,43.2
2023-05-08T13:43:44.354Z,41.6
2023-05-08T13:45:05.444Z,43.5
2023-05-08T13:46:26.516Z,39.8
2023-05-08T13:47:47.588Z,39.7
2023-05-08T13:49:08.679Z,39.8
2023-05-08T13:50:29.738Z,39.6
2023-05-08T13:51:50.826Z,41.4
2023-05-08T13:53:12.027Z,42
2023-05-08T13:54:33.098Z,38.5
2023-05-08T13:55:54.185Z,39.1
2023-05-08T13:57:15.265Z,41.7
2023-05-08T13:58:36.339Z,39.8
2023-05-08T13:59:57.424Z,40.5
2023-05-08T14:01:18.494Z,40.4
2023-05-08T14:02:39.566Z,40
2023-05-08T14:04:00.664Z,42.5
2023-05-08T14:05:21.727Z,43
2023-05-08T14:06:42.818Z,43.6
2023-05-08T14:08:03.898Z,41.1
2023-05-08T14:09:24.963Z,39.6
2023-05-08T14:10:45.068Z,39.7
2023-05-08T14:12:06.149Z,41.4
2023-05-08T14:13:27.211Z,40.2
2023-05-08T14:14:48.295Z,40.6
2023-05-08T14:16:09.371Z,40.7
2023-05-08T14:17:30.444Z,42.8
2023-05-08T14:18:51.513Z,42.9
2023-05-08T14:20:12.601Z,40
2023-05-08T14:21:33.671Z,42
2023-05-08T14:22:54.746Z,44.4
2023-05-08T14:24:15.821Z,42.2
2023-05-08T14:25:36.897Z,42.9
2023-05-08T14:26:57.996Z,40
2023-05-08T14:28:19.186Z,39.7
2023-05-08T14:29:40.272Z,40.1
2023-05-08T14:31:01.344Z,40.6
2023-05-08T14:32:22.409Z,41.6
2023-05-08T14:33:43.496Z,44.9
2023-05-08T14:35:04.572Z,42.9
2023-05-08T14:36:25.642Z,42.7
2023-05-08T14:37:46.734Z,40.6
2023-05-08T14:39:07.806Z,43.6
2023-05-08T14:40:28.875Z,40.6
2023-05-08T14:41:49.960Z,41.7
2023-05-08T14:43:11.049Z,43.9
2023-05-08T14:44:32.113Z,45.2
2023-05-08T14:45:52.201Z,45.6
2023-05-08T14:47:13.272Z,45.9
2023-05-08T14:48:34.356Z,45.4
2023-05-08T14:49:55.417Z,47
2023-05-08T14:51:16.502Z,46.6
2023-05-08T14:52:36.595Z,46.8
2023-05-08T14:53:57.674Z,46.3
2023-05-08T14:55:18.740Z,47.3
2023-05-08T14:56:39.816Z,46.5
2023-05-08T14:58:00.883Z,45.7
2023-05-08T14:59:21.950Z,46.9
2023-05-08T15:00:43.034Z,44.9
2023-05-08T15:02:04.110Z,42.3
2023-05-08T15:03:25.182Z,46.3
2023-05-08T15:04:46.255Z,47.5
2023-05-08T15:06:07.332Z,46.6
2023-05-08T15:07:28.386Z,46.1
2023-05-08T15:08:49.461Z,44.2
2023-05-08T15:10:09.543Z,45.8
2023-05-08T15:11:30.611Z,45.3
2023-05-08T15:12:51.672Z,47.2
2023-05-08T15:14:12.737Z,47
2023-05-08T15:15:33.799Z,48.8
2023-05-08T15:16:54.893Z,49.1
2023-05-08T15:18:15.954Z,51.1
2023-05-08T15:19:37.040Z,51
2023-05-08T15:20:58.084Z,50.3
2023-05-08T15:22:19.168Z,51.4
2023-05-08T15:23:40.213Z,49.2
2023-05-08T15:25:01.292Z,51.2
2023-05-08T15:26:22.348Z,51.5
2023-05-08T15:27:42.445Z,49.3
2023-05-08T15:29:03.505Z,47.9
2023-05-08T15:30:24.572Z,49.2
2023-05-08T15:31:45.625Z,49.3
2023-05-08T15:33:06.700Z,48.5
2023-05-08T15:34:27.774Z,49.5
2023-05-08T15:35:48.836Z,52
2023-05-08T15:37:09.902Z,52.2
2023-05-08T15:38:30.982Z,51.4
2023-05-08T15:39:52.045Z,52.9
2023-05-08T15:41:13.111Z,53
2023-05-08T15:42:34.177Z,52.7
2023-05-08T15:43:55.255Z,53.4
2023-05-08T15:45:15.336Z,53.2
2023-05-08T15:46:36.393Z,52.9
2023-05-08T15:47:57.468Z,52.5
2023-05-08T15:49:18.543Z,53.7
2023-05-08T15:50:39.595Z,53.9
2023-05-08T15:52:00.664Z,52.3
2023-05-08T15:53:21.729Z,53.2
2023-05-08T15:54:42.795Z,53.7
2023-05-08T15:56:03.863Z,53.3
2023-05-08T15:57:24.952Z,55.6
2023-05-08T15:58:46.015Z,55.5
2023-05-08T16:00:07.073Z,54.3
2023-05-08T16:01:28.142Z,52.6
2023-05-08T16:02:48.211Z,52.7
2023-05-08T16:04:09.279Z,52.5
2023-05-08T16:05:30.354Z,52.5
2023-05-08T16:06:51.419Z,51.8
2023-05-08T16:08:12.486Z,51.5
2023-05-08T16:09:33.563Z,52.9
2023-05-08T16:10:54.621Z,52.5
2023-05-08T16:12:15.692Z,52.8
2023-05-08T16:13:36.750Z,52.5
2023-05-08T16:14:57.831Z,54.1
2023-05-08T16:16:18.893Z,55.8
2023-05-08T16:17:39.963Z,54.5
2023-05-08T16:19:01.020Z,55.6
2023-05-08T16:20:21.104Z,53
2023-05-08T16:21:42.177Z,51.9
2023-05-08T16:23:03.237Z,52.8
2023-05-08T16:24:24.299Z,54.9
2023-05-08T16:25:45.380Z,51.1
2023-05-08T16:27:06.435Z,52.1
2023-05-08T16:28:27.494Z,51.8
2023-05-08T16:29:48.563Z,52.4
2023-05-08T16:31:09.630Z,54
2023-05-08T16:32:30.716Z,53.2
2023-05-08T16:33:51.756Z,52.5
2023-05-08T16:35:12.845Z,52.1
2023-05-08T16:36:33.912Z,51.7
2023-05-08T16:37:53.977Z,54.1
2023-05-08T16:39:15.048Z,52.9
2023-05-08T16:40:36.125Z,53
2023-05-08T16:41:57.198Z,53
2023-05-08T16:43:18.264Z,52.6
2023-05-08T16:44:39.313Z,50.9
2023-05-08T16:46:00.379Z,52.5
2023-05-08T16:47:21.443Z,51
2023-05-08T16:48:42.514Z,51.9
2023-05-08T16:50:03.578Z,52.4
2023-05-08T16:51:24.642Z,52.9
2023-05-08T16:52:45.709Z,52.8
2023-05-08T16:54:06.774Z,53.6
2023-05-08T16:55:26.865Z,53.8
2023-05-08T16:56:47.921Z,52.7
2023-05-08T16:58:08.990Z,52.6
2023-05-08T16:59:30.064Z,52.9
2023-05-08T17:00:51.117Z,52.5
2023-05-08T17:02:12.228Z,53.1
2023-05-08T17:03:33.248Z,54.6
2023-05-08T17:04:54.327Z,53
2023-05-08T17:06:15.384Z,53.9
2023-05-08T17:07:36.466Z,54.4
2023-05-08T17:08:57.537Z,53.6
2023-05-08T17:10:18.601Z,50.9
2023-05-08T17:11:39.656Z,50.7
2023-05-08T17:12:59.748Z,51.6
2023-05-08T17:14:20.812Z,51.8
2023-05-08T17:15:41.887Z,52.4
2023-05-08T17:17:02.949Z,50.6
2023-05-08T17:18:24.022Z,52.1
2023-05-08T17:19:45.097Z,52.6
2023-05-08T17:21:06.172Z,52.1
2023-05-08T17:22:27.215Z,51.8
2023-05-08T17:23:48.303Z,52.3
2023-05-08T17:25:09.370Z,51.8
2023-05-08T17:26:30.429Z,50.9
2023-05-08T17:27:51.481Z,51.6
2023-05-08T17:29:12.573Z,52.1
2023-05-08T17:30:32.643Z,52
2023-05-08T17:31:53.717Z,51.5
2023-05-08T17:33:14.761Z,51.9
2023-05-08T17:34:35.840Z,52.4
2023-05-08T17:35:56.912Z,51.4
2023-05-08T17:37:17.985Z,52
2023-05-08T17:38:39.054Z,51.8
2023-05-08T17:41:21.189Z,52
2023-05-08T17:42:42.234Z,52.9
2023-05-08T17:44:03.311Z,53.3
2023-05-08T17:45:24.370Z,53.6
2023-05-08T17:46:45.460Z,53.9
2023-05-08T17:48:05.540Z,53.2
2023-05-08T17:49:26.588Z,55.1
2023-05-08T17:50:47.675Z,53.6
2023-05-08T17:52:08.730Z,53.8
2023-05-08T17:53:29.804Z,53
2023-05-08T17:54:50.860Z,53.3
2023-05-08T17:56:11.949Z,53.1
2023-05-08T17:57:33.012Z,53.6
2023-05-08T17:58:54.079Z,54.2
2023-05-08T18:00:15.139Z,54
2023-05-08T18:01:36.186Z,54
2023-05-08T18:02:57.279Z,54.2
2023-05-08T18:04:18.355Z,55
2023-05-08T18:05:38.438Z,54.9
2023-05-08T18:06:59.491Z,55.3
2023-05-08T18:08:20.556Z,54.2
2023-05-08T18:09:41.641Z,55.3
2023-05-08T18:11:02.681Z,55.1
2023-05-08T18:12:23.764Z,55.5
2023-05-08T18:13:44.829Z,55.6
2023-05-08T18:15:05.877Z,55.4
2023-05-08T18:16:26.977Z,56
2023-05-08T18:17:48.030Z,57.3
2023-05-08T18:19:09.000Z,57.4
2023-05-08T18:20:30.161Z,57.3
2023-05-08T18:21:51.245Z,56.8
2023-05-08T18:23:11.314Z,56.6
2023-05-08T18:24:32.365Z,57.6
2023-05-08T18:25:53.442Z,57.4
2023-05-08T18:27:14.496Z,57.8
2023-05-08T18:28:35.599Z,57.7
2023-05-08T18:29:56.666Z,57.1
2023-05-08T18:31:17.724Z,57.5
2023-05-08T18:32:38.794Z,57
2023-05-08T18:33:59.846Z,56.6
2023-05-08T18:35:20.902Z,57.2
2023-05-08T18:36:41.990Z,57.8
2023-05-08T18:38:03.050Z,57.6
2023-05-08T18:39:24.138Z,56.6
2023-05-08T18:40:44.189Z,57
2023-05-08T18:42:05.263Z,57.2
2023-05-08T18:43:26.321Z,57.5
2023-05-08T18:44:47.405Z,57
2023-05-08T18:46:08.476Z,57.1
2023-05-08T18:47:29.538Z,57.5
2023-05-08T18:48:50.594Z,57.7
2023-05-08T18:50:11.674Z,57.9
2023-05-08T18:51:32.747Z,58.5
2023-05-08T18:52:53.812Z,59.7
2023-05-08T18:54:14.859Z,59
2023-05-08T18:55:35.951Z,58.8
2023-05-08T18:56:57.009Z,58.8
2023-05-08T18:58:17.100Z,59.2
2023-05-08T18:59:38.134Z,58.9
2023-05-08T19:00:59.223Z,59
2023-05-08T19:02:20.270Z,58.9
2023-05-08T19:03:41.339Z,60.2
2023-05-08T19:05:02.422Z,59.9
2023-05-08T19:06:23.504Z,59.9
2023-05-08T19:07:44.542Z,59.4
2023-05-08T19:09:05.627Z,59.4
2023-05-08T19:10:26.690Z,59.4
2023-05-08T19:11:47.758Z,59.7
2023-05-08T19:13:08.830Z,59.6
2023-05-08T19:14:29.950Z,59.7
2023-05-08T19:15:50.000Z,59.5
2023-05-08T19:17:11.098Z,59.9
2023-05-08T19:18:32.122Z,60.3
2023-05-08T19:19:53.259Z,60.2
2023-05-08T19:21:14.375Z,61.3
2023-05-08T19:22:35.474Z,61.6
2023-05-08T19:23:55.589Z,61.8
2023-05-08T19:25:16.724Z,61.8
2023-05-08T19:26:37.824Z,61.8
2023-05-08T19:27:58.939Z,61.5
2023-05-08T19:29:20.016Z,61.5
2023-05-08T19:30:41.154Z,61.9
2023-05-08T19:32:02.257Z,61.7
2023-05-08T19:33:23.370Z,62.1
2023-05-08T19:34:44.000Z,62
2023-05-08T19:36:05.592Z,61.6
2023-05-08T19:37:26.702Z,61.6
2023-05-08T19:38:47.796Z,61.4
2023-05-08T19:40:08.928Z,61.4
2023-05-08T19:41:29.037Z,61.8
2023-05-08T19:42:50.160Z,61.6
2023-05-08T19:44:11.263Z,61.9
2023-05-08T19:45:32.384Z,62.8
2023-05-08T19:46:53.491Z,62.9
2023-05-08T19:48:14.600Z,63
2023-05-08T19:49:35.703Z,63.3
2023-05-08T19:50:56.823Z,64.4
2023-05-08T19:52:17.924Z,64
2023-05-08T19:53:39.044Z,64.3
2023-05-08T19:55:00.120Z,64.6
2023-05-08T19:56:21.237Z,65.1
2023-05-08T19:57:42.358Z,65.2
2023-05-08T19:59:02.459Z,65.7
2023-05-08T20:00:23.607Z,65.7
2023-05-08T20:01:44.685Z,66.4
2023-05-08T20:03:05.790Z,66.6
2023-05-08T20:04:26.904Z,67.4
2023-05-08T20:05:48.034Z,67.3
2023-05-08T20:07:09.146Z,67.4
2023-05-08T20:08:30.259Z,67.2
2023-05-08T20:09:51.339Z,67.3
2023-05-08T20:11:12.467Z,67.3
2023-05-08T20:12:33.552Z,67.4
2023-05-08T20:13:54.697Z,67.9
2023-05-08T20:15:15.811Z,68.3
2023-05-08T20:16:35.931Z,68.2
2023-05-08T20:17:57.005Z,68.3
2023-05-08T20:19:18.146Z,68.9
2023-05-08T20:20:39.223Z,68.7
2023-05-08T20:22:00.356Z,69.3
2023-05-08T20:23:21.439Z,68.9
2023-05-08T20:24:42.576Z,69.2
2023-05-08T20:26:03.681Z,69.7
2023-05-08T20:27:24.792Z,69.6
2023-05-08T20:28:45.880Z,69.7
2023-05-08T20:30:07.023Z,70.5
2023-05-08T20:31:28.118Z,70.5
2023-05-08T20:32:49.233Z,70.9
2023-05-08T20:34:10.464Z,71.3
2023-05-08T20:35:31.572Z,70.9
2023-05-08T20:36:52.665Z,71.5
2023-05-08T20:38:13.806Z,71.8
2023-05-08T20:39:34.907Z,72.1
2023-05-08T20:40:55.991Z,72.1
2023-05-08T20:42:17.118Z,72.2
2023-05-08T20:43:38.213Z,72.4
2023-05-08T20:44:59.332Z,72.4
2023-05-08T20:46:20.447Z,73
2023-05-08T20:47:41.553Z,72.9
2023-05-08T20:49:02.660Z,73
2023-05-08T20:50:23.769Z,73.5
2023-05-08T20:51:43.882Z,73.5
2023-05-08T20:53:05.001Z,73.7
2023-05-08T20:54:26.101Z,73.8
2023-05-08T20:55:47.219Z,74
2023-05-08T20:57:08.319Z,74.5
2023-05-08T20:58:29.425Z,75
2023-05-08T20:59:50.554Z,75.1
2023-05-08T21:01:11.646Z,75.7
2023-05-08T21:02:32.757Z,75.9
2023-05-08T21:03:53.875Z,76.3
2023-05-08T21:05:14.974Z,76.4
2023-05-08T21:06:36.091Z,76.5
2023-05-08T21:07:57.195Z,77
2023-05-08T21:09:17.321Z,76.5
2023-05-08T21:10:38.434Z,77.2
2023-05-08T21:11:59.543Z,77.2
2023-05-08T21:13:20.660Z,77.4
2023-05-08T21:14:41.766Z,77.5
2023-05-08T21:16:02.865Z,77.4
2023-05-08T21:17:23.979Z,77.4
2023-05-08T21:18:45.089Z,77
2023-05-08T21:20:06.200Z,77.2
2023-05-08T21:21:27.315Z,76.6
2023-05-08T21:22:48.422Z,77
2023-05-08T21:24:09.526Z,77
2023-05-08T21:25:30.638Z,77.5
2023-05-08T21:26:50.757Z,78.1
2023-05-08T21:28:11.871Z,78.8
2023-05-08T21:29:32.980Z,79.4
2023-05-08T21:30:54.072Z,79.6
2023-05-08T21:32:15.187Z,79.5
2023-05-08T21:33:36.294Z,79.7
2023-05-08T21:34:57.404Z,79.6
2023-05-08T21:36:18.517Z,79.8
2023-05-08T21:37:39.637Z,79.6
2023-05-08T21:39:00.723Z,79.7
2023-05-08T21:40:21.837Z,79.6
2023-05-08T21:41:42.946Z,79.5
2023-05-08T21:43:04.061Z,79.9
2023-05-08T21:44:24.198Z,80
2023-05-08T21:45:45.304Z,80.1
2023-05-08T21:47:06.395Z,80
2023-05-08T21:48:27.505Z,79.6
2023-05-08T21:49:48.626Z,79.7
2023-05-08T21:51:09.739Z,79.9
2023-05-08T21:52:30.831Z,79.8
2023-05-08T21:53:51.952Z,79.7
2023-05-08T21:55:13.052Z,79.8
2023-05-08T21:56:34.167Z,79.8
2023-05-08T21:57:55.282Z,80.2
2023-05-08T21:59:16.377Z,80.2
2023-05-08T22:00:37.484Z,80.2
2023-05-08T22:01:57.599Z,80.2
2023-05-08T22:03:18.729Z,80.5
2023-05-08T22:04:39.827Z,80.8
2023-05-08T22:06:00.925Z,81
2023-05-08T22:07:22.042Z,81
2023-05-08T22:08:43.155Z,81
2023-05-08T22:10:04.254Z,80.5
2023-05-08T22:11:25.367Z,80.5
2023-05-08T22:12:46.475Z,80.5
2023-05-08T22:14:07.582Z,80.5
2023-05-08T22:15:28.702Z,80.8
2023-05-08T22:16:49.797Z,80.5
2023-05-08T22:18:10.911Z,80.5
2023-05-08T22:19:31.035Z,80.7
2023-05-08T22:20:52.157Z,80.8
2023-05-08T22:22:13.262Z,81.1
2023-05-08T22:23:34.359Z,81.3
2023-05-08T22:24:55.464Z,81.5
2023-05-08T22:26:16.575Z,81.5
2023-05-08T22:27:37.677Z,81.2
2023-05-08T22:28:58.791Z,81.2
2023-05-08T22:30:19.914Z,81.2
2023-05-08T22:31:41.008Z,81.2
2023-05-08T22:33:02.123Z,81.3
2023-05-08T22:34:23.234Z,81.4
2023-05-08T22:35:44.333Z,81.4
2023-05-08T22:37:04.455Z,81.5
2023-05-08T22:38:25.581Z,81.5
2023-05-08T22:39:46.676Z,81.6
2023-05-08T22:41:07.778Z,82
2023-05-08T22:42:28.893Z,82
2023-05-08T22:43:49.998Z,82.2
2023-05-08T22:45:11.107Z,82.7
2023-05-08T22:46:32.213Z,82.3
2023-05-08T22:47:53.342Z,82.1
2023-05-08T22:49:14.436Z,82.3
2023-05-08T22:50:35.546Z,82.7
2023-05-08T22:51:56.666Z,82.9
2023-05-08T22:53:17.764Z,83
2023-05-08T22:54:37.893Z,83.1
2023-05-08T22:55:59.007Z,82.9
2023-05-08T22:57:20.103Z,82.8
2023-05-08T22:58:41.219Z,82.7
2023-05-08T23:00:02.328Z,83
2023-05-08T23:01:23.444Z,83
2023-05-08T23:02:44.543Z,82.9
2023-05-08T23:04:05.660Z,83.1
2023-05-08T23:05:26.768Z,83
2023-05-08T23:06:47.865Z,83.1
2023-05-08T23:08:08.963Z,83.1
2023-05-08T23:09:30.084Z,83.1
2023-05-08T23:10:51.183Z,83.4
2023-05-08T23:12:11.323Z,83.4
2023-05-08T23:13:32.420Z,83.4
2023-05-08T23:14:53.519Z,83.4
2023-05-08T23:16:14.627Z,83.4
2023-05-08T23:17:35.741Z,83.5
2023-05-08T23:18:56.865Z,83.4
2023-05-08T23:20:17.966Z,83.3
2023-05-08T23:21:39.063Z,83.5
2023-05-08T23:23:00.192Z,83.7
2023-05-08T23:24:21.292Z,84